Time;durP1;ratioP1;P1;durP2;ratioP2;P2;SDS_P1;SDS_P2;PMS_P1;PMS_P2;Temp;Humidity;BMP_temperature;BMP_pressure;BME280_temperature;BME280_humidity;BME280_pressure;Samples;Min_cycle;Max_cycle;Signal;HPM_P1;HPM_P2
2022/01/21 00:01:03;;;;;;;20.55;3.00;;;6.40;99.90;;;;;;5114206;28;20469;-70
2022/01/21 00:03:29;;;;;;;24.83;3.42;;;6.40;99.90;;;;;;5114158;28;20493;-70
2022/01/21 00:05:55;;;;;;;20.38;2.65;;;6.40;99.90;;;;;;5116640;28;20413;-70
2022/01/21 00:08:20;;;;;;;18.43;3.03;;;6.40;99.90;;;;;;5106047;28;20465;-70
2022/01/21 00:10:46;;;;;;;21.40;2.92;;;6.50;99.90;;;;;;5108424;28;20515;-70
2022/01/21 00:13:23;;;;;;;20.10;2.65;;;6.50;99.90;;;;;;5115402;28;20439;-71
2022/01/21 00:15:49;;;;;;;21.73;3.00;;;6.50;99.90;;;;;;5097507;28;20698;-70
2022/01/21 00:18:15;;;;;;;23.60;3.00;;;6.60;99.90;;;;;;5125273;27;20434;-70
2022/01/21 00:31:39;;;;;;;22.35;2.70;;;6.80;99.90;;;;;;5108269;27;20400;-70
2022/01/21 00:34:05;;;;;;;23.40;2.78;;;6.80;99.90;;;;;;5119728;27;20919;-71
2022/01/21 00:36:32;;;;;;;23.37;3.27;;;6.80;99.90;;;;;;5104339;27;20436;-70
2022/01/21 00:38:58;;;;;;;21.48;3.05;;;6.80;99.90;;;;;;5114742;27;20424;-69
2022/01/21 00:41:28;;;;;;;20.33;2.75;;;6.80;99.90;;;;;;5113138;27;20400;-70
2022/01/21 00:43:54;;;;;;;23.90;2.88;;;6.80;99.90;;;;;;5119321;27;20392;-70
2022/01/21 00:46:19;;;;;;;23.83;2.87;;;6.80;99.90;;;;;;5110994;28;20479;-71
2022/01/21 00:48:45;;;;;;;17.27;2.80;;;6.70;99.90;;;;;;5110061;28;20873;-71
2022/01/21 00:51:11;;;;;;;26.23;2.80;;;6.70;99.90;;;;;;5118002;27;20412;-69
2022/01/21 00:53:37;;;;;;;17.45;2.55;;;6.80;99.90;;;;;;5124791;27;20414;-70
2022/01/21 00:56:02;;;;;;;14.05;1.80;;;6.80;99.90;;;;;;5110628;27;20416;-70
2022/01/21 00:58:28;;;;;;;8.63;1.20;;;6.80;99.90;;;;;;5117901;27;20769;-70
2022/01/21 01:00:54;;;;;;;6.43;1.20;;;6.70;99.90;;;;;;5102633;27;21667;-69
2022/01/21 01:03:20;;;;;;;8.10;1.10;;;6.70;99.90;;;;;;5112685;27;20412;-70
2022/01/21 01:05:52;;;;;;;7.32;1.10;;;6.70;99.90;;;;;;5120200;27;20410;-69
2022/01/21 01:08:19;;;;;;;7.43;1.05;;;6.70;99.90;;;;;;5120131;27;20492;-69
2022/01/21 01:11:01;;;;;;;8.30;1.15;;;6.60;99.90;;;;;;5115710;27;20424;-70
2022/01/21 01:21:44;;;;;;;12.20;1.30;;;6.40;99.90;;;;;;5124414;27;20459;-70
2022/01/21 01:29:24;;;;;;;14.65;2.03;;;6.30;99.90;;;;;;5113636;27;20883;-70
2022/01/21 01:31:51;;;;;;;16.13;2.63;;;6.40;99.90;;;;;;5115409;27;20406;-70
2022/01/21 01:34:17;;;;;;;13.75;2.50;;;6.30;99.90;;;;;;5117238;27;20416;-70
2022/01/21 01:36:45;;;;;;;16.17;2.50;;;6.30;99.90;;;;;;5100553;28;20927;-71
2022/01/21 01:39:16;;;;;;;21.30;3.35;;;6.40;99.90;;;;;;5114503;27;20749;-70
2022/01/21 01:41:57;;;;;;;15.43;2.67;;;6.40;99.90;;;;;;5114403;27;20414;-70
2022/01/21 01:49:51;;;;;;;18.27;2.83;;;6.50;99.90;;;;;;5125553;27;20400;-71
2022/01/21 01:52:17;;;;;;;23.27;3.13;;;6.50;99.90;;;;;;5114934;27;20889;-70
2022/01/21 01:54:50;;;;;;;18.42;3.10;;;6.40;99.90;;;;;;5113053;27;20467;-70
2022/01/21 01:57:16;;;;;;;22.42;3.35;;;6.40;99.90;;;;;;5108158;28;20734;-70
2022/01/21 01:59:42;;;;;;;19.80;3.33;;;6.40;99.90;;;;;;5123019;27;20397;-71
2022/01/21 02:02:14;;;;;;;19.40;3.10;;;6.40;99.90;;;;;;5106778;27;20419;-70
2022/01/21 02:04:42;;;;;;;25.20;3.47;;;6.40;99.90;;;;;;5118701;27;20495;-71
2022/01/21 02:07:08;;;;;;;17.60;2.50;;;6.50;99.90;;;;;;5112199;27;20416;-70
2022/01/21 02:09:36;;;;;;;18.42;2.95;;;6.50;99.90;;;;;;5090629;28;20417;-71
2022/01/21 02:12:03;;;;;;;17.92;2.67;;;6.50;99.90;;;;;;5108084;27;20450;-71
2022/01/21 02:14:33;;;;;;;18.50;2.90;;;6.60;99.90;;;;;;5119335;27;20406;-71
2022/01/21 02:22:34;;;;;;;20.73;2.65;;;6.70;99.90;;;;;;5084902;28;20500;-71
2022/01/21 02:25:15;;;;;;;19.00;2.83;;;6.80;99.90;;;;;;5117405;27;20911;-71
2022/01/21 02:27:41;;;;;;;17.67;2.33;;;6.80;99.90;;;;;;5105693;28;20440;-71
2022/01/21 02:30:08;;;;;;;25.10;3.05;;;6.80;99.90;;;;;;5112561;27;20427;-71
2022/01/21 02:32:34;;;;;;;23.85;2.90;;;6.70;99.90;;;;;;5114691;27;20420;-72
2022/01/21 02:34:59;;;;;;;20.10;2.17;;;6.70;99.90;;;;;;5097808;27;20410;-70
2022/01/21 02:37:25;;;;;;;18.10;2.57;;;6.70;99.90;;;;;;5100670;27;20411;-71
2022/01/21 02:39:51;;;;;;;17.90;2.27;;;6.70;99.90;;;;;;5094433;27;20399;-71
2022/01/21 02:42:19;;;;;;;14.82;2.20;;;6.70;99.90;;;;;;5097552;28;20407;-71
2022/01/21 02:44:45;;;;;;;10.48;1.73;;;6.70;99.90;;;;;;5119683;27;20408;-71
2022/01/21 02:47:11;;;;;;;15.30;1.83;;;6.60;99.90;;;;;;5115883;27;20412;-70
2022/01/21 02:49:45;;;;;;;11.98;1.70;;;6.60;99.90;;;;;;5136811;27;20416;-70
2022/01/21 02:52:11;;;;;;;20.23;2.00;;;6.60;99.90;;;;;;5113957;27;20525;-70
2022/01/21 02:54:37;;;;;;;14.00;1.60;;;6.60;99.90;;;;;;5102909;27;20909;-70
2022/01/21 02:57:06;;;;;;;15.57;1.98;;;6.50;99.90;;;;;;5114169;27;20407;-70
2022/01/21 02:59:33;;;;;;;10.77;1.60;;;6.50;99.90;;;;;;5109200;28;20411;-69
2022/01/21 03:02:00;;;;;;;13.77;1.65;;;6.50;99.90;;;;;;5105904;28;20414;-69
2022/01/21 03:07:11;;;;;;;12.95;1.60;;;6.50;99.90;;;;;;5113065;27;20765;-69
2022/01/21 03:09:37;;;;;;;12.43;1.97;;;6.50;99.90;;;;;;5113104;27;20381;-70
2022/01/21 03:12:03;;;;;;;16.40;1.80;;;6.50;99.90;;;;;;5111573;27;20626;-69
2022/01/21 03:14:28;;;;;;;18.13;2.13;;;6.50;99.90;;;;;;5111292;28;20408;-69
2022/01/21 03:16:55;;;;;;;18.10;2.40;;;6.50;99.90;;;;;;5110617;27;20737;-69
2022/01/21 03:19:21;;;;;;;15.07;2.42;;;6.50;99.90;;;;;;5110263;28;20388;-69
2022/01/21 03:21:47;;;;;;;14.63;2.20;;;6.50;99.90;;;;;;5111181;28;20469;-70
2022/01/21 03:24:12;;;;;;;14.82;2.58;;;6.50;99.90;;;;;;5107803;28;20464;-69
2022/01/21 03:26:38;;;;;;;25.83;3.80;;;6.50;99.90;;;;;;5090049;28;20396;-69
2022/01/21 03:29:04;;;;;;;22.27;3.37;;;6.50;99.90;;;;;;5107366;28;20773;-70
2022/01/21 03:31:34;;;;;;;16.83;3.30;;;6.40;99.90;;;;;;5113487;28;20418;-69
2022/01/21 03:34:02;;;;;;;21.13;3.33;;;6.50;99.90;;;;;;5107370;28;20403;-69
2022/01/21 03:36:31;;;;;;;19.40;3.75;;;6.40;99.90;;;;;;5089503;28;20765;-70
2022/01/21 03:38:57;;;;;;;18.27;3.60;;;6.40;99.90;;;;;;5118582;28;20394;-69
2022/01/21 03:41:23;;;;;;;18.52;3.17;;;6.40;99.90;;;;;;5113210;28;20881;-68
2022/01/21 03:43:49;;;;;;;16.08;3.03;;;6.40;99.90;;;;;;5111252;28;20406;-69
2022/01/21 03:46:16;;;;;;;21.63;2.87;;;6.50;99.90;;;;;;5106951;28;20454;-69
2022/01/21 03:48:47;;;;;;;10.57;2.60;;;6.50;99.90;;;;;;5118795;28;20406;-69
2022/01/21 03:51:13;;;;;;;20.27;2.70;;;6.50;99.90;;;;;;5107402;27;20462;-69
2022/01/21 03:53:39;;;;;;;14.73;2.20;;;6.50;99.90;;;;;;5097034;28;20423;-69
2022/01/21 03:56:04;;;;;;;18.58;2.30;;;6.50;99.90;;;;;;5113015;27;20924;-69
2022/01/21 03:58:30;;;;;;;20.00;2.83;;;6.50;99.90;;;;;;5116961;27;20896;-69
2022/01/21 04:00:56;;;;;;;16.73;2.20;;;6.50;99.90;;;;;;5112085;27;20413;-69
2022/01/21 04:03:24;;;;;;;15.07;1.98;;;6.50;99.90;;;;;;5109786;28;20404;-69
2022/01/21 04:05:51;;;;;;;14.15;1.88;;;6.60;99.90;;;;;;5112729;27;20755;-69
2022/01/21 04:08:17;;;;;;;13.73;2.30;;;6.60;99.90;;;;;;5113115;27;20730;-68
2022/01/21 04:10:50;;;;;;;12.48;2.10;;;6.50;99.90;;;;;;5097669;27;20407;-68
2022/01/21 04:13:19;;;;;;;17.67;2.00;;;6.60;99.90;;;;;;5119749;27;20396;-69
2022/01/21 04:15:50;;;;;;;15.30;2.30;;;6.60;99.90;;;;;;5107768;28;20416;-69
2022/01/21 04:18:17;;;;;;;20.20;2.50;;;6.60;99.90;;;;;;5100112;27;20417;-68
2022/01/21 04:20:48;;;;;;;18.27;2.00;;;6.70;99.90;;;;;;5111590;27;20396;-68
2022/01/21 04:23:15;;;;;;;20.65;2.20;;;6.70;99.90;;;;;;5111160;28;20392;-69
2022/01/21 04:25:41;;;;;;;16.85;2.03;;;6.70;99.90;;;;;;5109940;27;20503;-69
2022/01/21 04:28:07;;;;;;;17.33;2.10;;;6.80;99.90;;;;;;5109063;28;20517;-69
2022/01/21 04:30:34;;;;;;;17.05;2.33;;;6.80;99.90;;;;;;5117873;27;20391;-69
2022/01/21 04:33:00;;;;;;;14.60;1.90;;;6.80;99.90;;;;;;5109790;28;20388;-69
2022/01/21 04:35:27;;;;;;;15.77;1.90;;;6.90;99.90;;;;;;5116818;27;20458;-69
2022/01/21 04:37:56;;;;;;;17.55;2.10;;;6.90;99.90;;;;;;5112328;27;20810;-69
2022/01/21 04:40:27;;;;;;;14.40;2.03;;;6.80;99.90;;;;;;5111663;27;20736;-69
2022/01/21 04:48:31;;;;;;;14.55;2.30;;;6.80;99.90;;;;;;5117350;27;20519;-69
2022/01/21 04:51:00;;;;;;;14.15;2.08;;;6.80;99.90;;;;;;5116843;27;20506;-69
2022/01/21 04:53:29;;;;;;;14.88;2.47;;;6.90;99.90;;;;;;5139027;27;20473;-68
2022/01/21 04:56:06;;;;;;;14.20;2.10;;;6.80;99.90;;;;;;5113295;27;20396;-68
2022/01/21 04:58:33;;;;;;;15.55;2.15;;;6.80;99.90;;;;;;5093068;28;20400;-69
2022/01/21 05:01:03;;;;;;;14.15;2.40;;;6.80;99.90;;;;;;5099126;27;20402;-68
2022/01/21 05:03:28;;;;;;;14.70;2.05;;;6.80;99.90;;;;;;5118856;27;20434;-69
2022/01/21 05:05:55;;;;;;;16.07;2.00;;;6.80;99.90;;;;;;5099543;28;21261;-69
2022/01/21 05:08:44;;;;;;;17.40;2.17;;;6.70;99.90;;;;;;5114293;27;20400;-69
2022/01/21 05:11:09;;;;;;;12.57;1.63;;;6.70;99.90;;;;;;5112008;27;20400;-70
2022/01/21 05:13:40;;;;;;;17.08;2.15;;;6.70;99.90;;;;;;5109979;27;20397;-69
2022/01/21 05:16:18;;;;;;;13.90;1.95;;;6.70;99.90;;;;;;5112452;27;20461;-69
2022/01/21 05:18:44;;;;;;;13.02;1.85;;;6.70;99.90;;;;;;5112495;27;20745;-69
2022/01/21 05:21:27;;;;;;;13.98;1.70;;;6.80;99.90;;;;;;5120274;27;20404;-69
2022/01/21 05:24:10;;;;;;;11.63;1.50;;;6.70;99.90;;;;;;5111825;27;20536;-71
2022/01/21 05:26:38;;;;;;;15.65;1.77;;;6.70;99.90;;;;;;5114803;27;20483;-70
2022/01/21 05:29:09;;;;;;;9.55;1.90;;;6.70;99.90;;;;;;5120677;27;20404;-70
2022/01/21 05:31:52;;;;;;;14.48;1.77;;;6.70;99.90;;;;;;5118756;27;20391;-70
2022/01/21 05:34:28;;;;;;;12.60;2.53;;;6.60;99.90;;;;;;5115058;27;20414;-69
2022/01/21 05:37:16;;;;;;;14.13;2.00;;;6.60;99.90;;;;;;5101579;27;20399;-70
2022/01/21 05:40:01;;;;;;;12.50;1.90;;;6.50;99.90;;;;;;5116404;27;20415;-69
2022/01/21 05:42:49;;;;;;;15.88;1.88;;;6.50;99.90;;;;;;5115630;27;20400;-70
2022/01/21 05:48:33;;;;;;;12.33;1.90;;;6.50;99.90;;;;;;5112870;27;20411;-70
2022/01/21 05:51:18;;;;;;;16.67;2.10;;;6.40;99.90;;;;;;5119265;27;20436;-71
2022/01/21 05:54:02;;;;;;;15.50;2.25;;;6.40;99.90;;;;;;5114386;27;20511;-70
2022/01/21 05:56:31;;;;;;;14.93;1.80;;;6.40;99.90;;;;;;5122058;27;20408;-70
2022/01/21 05:59:23;;;;;;;17.73;2.13;;;6.30;99.90;;;;;;5107097;27;20842;-70
2022/01/21 06:01:50;;;;;;;16.97;2.10;;;6.30;99.90;;;;;;5106620;27;20469;-69
2022/01/21 06:04:16;;;;;;;13.45;1.63;;;6.30;99.90;;;;;;5104703;27;20510;-69
2022/01/21 06:06:42;;;;;;;14.65;2.13;;;6.30;99.90;;;;;;5116707;27;20483;-70
2022/01/21 06:09:08;;;;;;;16.07;2.50;;;6.40;99.90;;;;;;5107539;27;20419;-70
2022/01/21 06:11:34;;;;;;;18.33;2.30;;;6.50;99.90;;;;;;5120936;27;20990;-70
2022/01/21 06:14:02;;;;;;;15.82;2.30;;;6.50;99.90;;;;;;5111318;27;20412;-69
2022/01/21 06:16:28;;;;;;;18.08;2.03;;;6.50;99.90;;;;;;5100930;27;20406;-71
2022/01/21 06:18:54;;;;;;;15.70;1.90;;;6.60;99.90;;;;;;5107099;27;21061;-69
2022/01/21 06:21:20;;;;;;;16.38;2.70;;;6.60;99.90;;;;;;5107247;27;20447;-69
2022/01/21 06:23:46;;;;;;;14.88;2.42;;;6.70;99.90;;;;;;5111740;27;20391;-70
2022/01/21 06:26:12;;;;;;;15.33;2.40;;;6.70;99.90;;;;;;5108230;27;20432;-70
2022/01/21 06:28:38;;;;;;;22.75;2.72;;;6.80;99.90;;;;;;5107956;27;20499;-69
2022/01/21 06:31:04;;;;;;;19.58;2.50;;;6.80;99.90;;;;;;5109213;27;20497;-69
2022/01/21 06:33:29;;;;;;;19.75;3.30;;;6.90;99.90;;;;;;5115075;27;20981;-69
2022/01/21 06:35:55;;;;;;;14.65;2.70;;;6.90;99.90;;;;;;5114753;27;20833;-71
2022/01/21 06:38:22;;;;;;;21.07;3.23;;;6.90;99.90;;;;;;5120447;27;20915;-71
2022/01/21 06:40:48;;;;;;;19.23;2.78;;;6.90;99.90;;;;;;5115058;27;20414;-70
2022/01/21 06:43:15;;;;;;;21.58;3.10;;;7.00;99.90;;;;;;5120739;27;20754;-70
2022/01/21 06:45:41;;;;;;;18.92;3.17;;;7.00;99.90;;;;;;5113195;27;20423;-71
2022/01/21 06:48:07;;;;;;;18.92;4.60;;;7.00;99.90;;;;;;5104265;27;20400;-69
2022/01/21 06:50:35;;;;;;;17.73;4.15;;;7.00;99.90;;;;;;5102580;27;20423;-70
2022/01/21 06:53:00;;;;;;;23.80;3.53;;;7.00;99.90;;;;;;5115104;27;20506;-70
2022/01/21 06:55:26;;;;;;;20.20;3.30;;;7.00;99.90;;;;;;5107238;28;20465;-71
2022/01/21 06:57:52;;;;;;;19.37;3.10;;;7.00;99.90;;;;;;5106321;27;20414;-71
2022/01/21 07:00:19;;;;;;;21.23;3.60;;;6.90;99.90;;;;;;5106481;27;20760;-71
2022/01/21 07:02:46;;;;;;;26.13;3.80;;;6.90;99.90;;;;;;5096484;27;20790;-71
2022/01/21 07:05:12;;;;;;;26.88;4.22;;;6.90;99.90;;;;;;5118315;27;20424;-71
2022/01/21 07:07:38;;;;;;;29.33;4.55;;;6.80;99.90;;;;;;5105426;28;20416;-70
2022/01/21 07:10:06;;;;;;;25.52;3.80;;;6.80;99.90;;;;;;5119643;27;20412;-70
2022/01/21 07:12:33;;;;;;;34.92;12.27;;;6.80;99.90;;;;;;5091240;28;20735;-71
2022/01/21 07:14:59;;;;;;;24.95;3.70;;;6.80;99.90;;;;;;5111029;27;20415;-70
2022/01/21 07:17:25;;;;;;;20.77;2.90;;;6.70;99.90;;;;;;5107920;28;20727;-70
2022/01/21 07:19:50;;;;;;;27.97;3.23;;;6.70;99.90;;;;;;5117114;27;20444;-71
2022/01/21 07:22:16;;;;;;;24.10;3.28;;;6.70;99.90;;;;;;5119975;27;20424;-71
2022/01/21 07:24:42;;;;;;;24.17;3.00;;;6.70;99.90;;;;;;5117432;27;20417;-71
2022/01/21 07:27:07;;;;;;;28.17;3.00;;;6.70;99.90;;;;;;5107738;28;20465;-71
2022/01/21 07:29:33;;;;;;;21.90;2.33;;;6.70;99.90;;;;;;5097826;28;20417;-71
2022/01/21 07:31:59;;;;;;;25.92;2.83;;;6.70;99.90;;;;;;5105048;28;20480;-71
2022/01/21 07:34:26;;;;;;;23.17;3.05;;;6.70;99.90;;;;;;5100327;27;20504;-70
2022/01/21 07:36:53;;;;;;;18.50;2.50;;;6.70;99.90;;;;;;5106604;28;20717;-70
2022/01/21 07:39:19;;;;;;;27.10;3.05;;;6.80;99.90;;;;;;5104955;28;20396;-70
2022/01/21 07:41:45;;;;;;;22.77;2.80;;;6.80;99.90;;;;;;5105954;28;20904;-69
2022/01/21 07:44:12;;;;;;;22.30;3.15;;;6.90;99.90;;;;;;5111346;28;20887;-71
2022/01/21 07:46:42;;;;;;;29.00;3.35;;;6.90;99.90;;;;;;5120290;27;20489;-69
2022/01/21 07:49:08;;;;;;;19.83;2.83;;;7.00;99.90;;;;;;5105776;28;20408;-70
2022/01/21 07:51:34;;;;;;;36.83;5.47;;;7.00;99.90;;;;;;5113870;28;20407;-70
2022/01/21 07:54:00;;;;;;;23.00;3.10;;;7.10;99.90;;;;;;5115369;28;20476;-70
2022/01/21 07:56:26;;;;;;;27.92;3.60;;;7.20;99.90;;;;;;5111315;28;20408;-69
2022/01/21 07:58:52;;;;;;;24.33;3.20;;;7.20;99.90;;;;;;5106607;27;20534;-69
2022/01/21 08:01:18;;;;;;;26.17;3.10;;;7.30;99.90;;;;;;5107000;28;20473;-70
2022/01/21 08:03:44;;;;;;;27.55;3.33;;;7.30;99.90;;;;;;5105493;28;20896;-70
2022/01/21 08:06:10;;;;;;;20.60;3.20;;;7.40;99.90;;;;;;5098242;28;20408;-71
2022/01/21 08:08:35;;;;;;;23.83;2.93;;;7.40;99.90;;;;;;5111468;28;20495;-69
2022/01/21 08:11:01;;;;;;;25.33;3.17;;;7.50;99.90;;;;;;5109196;27;20449;-71
2022/01/21 08:13:27;;;;;;;19.33;2.60;;;7.50;99.90;;;;;;5106749;28;20483;-70
2022/01/21 08:15:54;;;;;;;20.90;3.03;;;7.50;99.90;;;;;;5104828;28;20499;-69
2022/01/21 08:18:20;;;;;;;24.08;3.10;;;7.60;99.90;;;;;;5109111;27;21038;-70
2022/01/21 08:20:47;;;;;;;25.15;3.47;;;7.60;99.90;;;;;;5106793;28;20404;-71
2022/01/21 08:23:13;;;;;;;23.40;3.33;;;7.60;99.90;;;;;;5114516;28;20905;-71
2022/01/21 08:25:39;;;;;;;35.35;3.95;;;7.60;99.90;;;;;;5106799;28;20448;-68
2022/01/21 08:28:05;;;;;;;29.33;3.13;;;7.70;99.90;;;;;;5107330;27;20433;-69
2022/01/21 08:30:31;;;;;;;31.13;3.73;;;7.70;99.90;;;;;;5105685;28;20971;-71
2022/01/21 08:32:57;;;;;;;36.40;8.00;;;7.80;99.90;;;;;;5108654;28;20415;-70
2022/01/21 08:35:23;;;;;;;28.75;3.50;;;7.80;99.90;;;;;;5107665;28;20416;-70
2022/01/21 08:37:52;;;;;;;24.30;2.90;;;7.90;99.90;;;;;;5121131;27;20401;-70
2022/01/21 08:40:19;;;;;;;20.80;2.92;;;7.90;99.90;;;;;;5114218;27;20412;-70
2022/01/21 08:42:44;;;;;;;26.33;2.90;;;8.00;99.90;;;;;;5108671;28;20400;-70
2022/01/21 08:45:11;;;;;;;26.37;2.90;;;8.00;99.90;;;;;;5110432;27;20426;-71
2022/01/21 08:47:40;;;;;;;19.13;2.47;;;8.00;99.90;;;;;;5111440;27;20427;-70
2022/01/21 08:50:08;;;;;;;21.23;2.40;;;8.10;99.90;;;;;;5092136;28;20796;-70
2022/01/21 08:52:37;;;;;;;15.60;2.13;;;8.10;99.90;;;;;;5115366;27;20481;-69
2022/01/21 08:55:07;;;;;;;19.02;2.20;;;8.10;99.90;;;;;;5111595;27;20428;-68
2022/01/21 08:57:36;;;;;;;18.33;2.20;;;8.20;99.90;;;;;;5094876;28;20714;-69
2022/01/21 09:00:05;;;;;;;19.67;2.47;;;8.20;99.90;;;;;;5110544;27;20408;-68
2022/01/21 09:02:30;;;;;;;22.43;2.90;;;8.20;99.90;;;;;;5110793;27;20513;-69
2022/01/21 09:04:56;;;;;;;18.52;2.88;;;8.30;99.90;;;;;;5110487;27;20815;-69
2022/01/21 09:07:22;;;;;;;18.07;2.40;;;8.40;99.90;;;;;;5111515;28;20416;-68
2022/01/21 09:09:47;;;;;;;19.52;2.60;;;8.40;99.90;;;;;;5110722;27;20415;-69
2022/01/21 09:12:13;;;;;;;17.93;2.57;;;8.40;99.90;;;;;;5111028;28;20396;-70
2022/01/21 09:14:39;;;;;;;12.82;2.05;;;8.50;99.90;;;;;;5116852;27;20518;-70
2022/01/21 09:17:04;;;;;;;14.57;2.03;;;8.50;99.90;;;;;;5109582;28;20403;-69
2022/01/21 09:19:32;;;;;;;18.63;2.60;;;8.50;99.90;;;;;;5117792;27;20788;-68
2022/01/21 09:22:02;;;;;;;17.23;2.20;;;8.60;99.90;;;;;;5114778;27;20896;-69
2022/01/21 09:24:28;;;;;;;18.53;2.37;;;8.70;99.90;;;;;;5125670;27;20396;-68
2022/01/21 09:26:54;;;;;;;20.70;3.15;;;8.80;99.90;;;;;;5095961;28;20420;-68
2022/01/21 09:29:19;;;;;;;19.67;2.50;;;8.80;99.90;;;;;;5112457;27;20461;-70
2022/01/21 09:31:45;;;;;;;18.97;5.40;;;8.80;99.90;;;;;;5109434;27;20407;-69
2022/01/21 09:34:11;;;;;;;17.05;2.40;;;8.80;99.90;;;;;;5109928;27;20420;-70
2022/01/21 09:36:37;;;;;;;18.70;2.80;;;8.90;99.90;;;;;;5111570;28;20185;-70
2022/01/21 09:39:04;;;;;;;22.20;2.40;;;8.50;99.90;;;;;;5109903;28;20555;-69
2022/01/21 09:41:31;;;;;;;12.05;1.65;;;8.30;99.90;;;;;;5110414;27;20188;-69
2022/01/21 09:43:58;;;;;;;15.88;1.63;;;8.10;99.90;;;;;;5114663;27;20221;-70
2022/01/21 09:46:34;;;;;;;13.05;2.10;;;7.90;99.90;;;;;;5096637;27;20185;-69
2022/01/21 09:49:25;;;;;;;24.25;2.20;;;7.80;99.90;;;;;;5130233;27;20552;-68
2022/01/21 09:51:52;;;;;;;15.65;2.30;;;7.70;99.90;;;;;;5104814;28;20669;-69
2022/01/21 09:54:18;;;;;;;21.88;1.92;;;7.60;99.90;;;;;;5110951;28;20185;-68
2022/01/21 09:56:45;;;;;;;;;;;7.60;99.90;;;;;;5110901;27;20052;-69
2022/01/21 09:59:11;;;;;;;;;;;8.20;99.90;;;;;;5118825;27;20386;-69
2022/01/21 10:01:37;;;;;;;;;;;8.60;99.90;;;;;;5109636;27;19908;-70
2022/01/21 10:04:04;;;;;;;;;;;8.80;99.90;;;;;;5108089;27;19914;-70
2022/01/21 10:06:30;;;;;;;;;;;8.90;99.90;;;;;;5107759;28;19915;-70
2022/01/21 10:08:56;;;;;;;18.70;2.60;;;9.00;99.90;;;;;;5094763;28;20417;-68
2022/01/21 10:11:23;;;;;;;18.23;2.50;;;10.00;99.90;;;;;;5107915;28;20515;-70
2022/01/21 10:13:50;;;;;;;8.23;1.70;;;10.90;99.90;;;;;;5110514;27;20356;-70
2022/01/21 10:16:16;;;;;;;17.48;1.65;;;10.50;99.90;;;;;;5108751;28;20212;-69
2022/01/21 10:19:01;;;;;;;14.70;1.98;;;10.20;99.90;;;;;;5109141;27;20177;-69
2022/01/21 10:21:35;;;;;;;12.85;2.10;;;9.90;99.90;;;;;;5108824;27;20225;-69
2022/01/21 10:24:11;;;;;;;15.65;2.20;;;9.70;99.90;;;;;;5107206;28;20261;-69
2022/01/21 10:26:46;;;;;;;14.68;1.77;;;9.40;99.90;;;;;;5108054;27;20205;-68
2022/01/21 10:29:13;;;;;;;;;;;9.10;99.90;;;;;;5109182;27;20157;-70
2022/01/21 10:31:51;;;;;;;25.40;2.45;;;8.90;99.90;;;;;;5109439;27;20266;-69
2022/01/21 10:34:24;;;;;;;20.17;2.28;;;8.70;99.90;;;;;;5112745;27;20314;-70
2022/01/21 10:36:55;;;;;;;21.88;2.50;;;8.70;99.90;;;;;;5106707;28;20177;-69
2022/01/21 10:39:29;;;;;;;20.48;2.00;;;8.60;99.90;;;;;;5107949;27;21545;-69
2022/01/21 10:41:57;;;;;;;17.58;2.03;;;8.60;99.90;;;;;;5109095;27;20228;-71
2022/01/21 10:44:25;;;;;;;18.48;2.30;;;8.60;99.90;;;;;;5110924;27;20356;-70
2022/01/21 10:47:05;;;;;;;17.70;2.42;;;8.60;99.90;;;;;;5114234;27;20629;-69
2022/01/21 10:49:31;;;;;;;25.45;2.28;;;8.60;99.90;;;;;;5109919;28;20192;-70
2022/01/21 10:51:57;;;;;;;20.05;2.28;;;8.60;99.90;;;;;;5101788;28;20638;-69
2022/01/21 10:54:29;;;;;;;25.67;2.65;;;8.70;99.90;;;;;;5089185;28;20269;-72
2022/01/21 10:57:16;;;;;;;23.30;2.95;;;8.90;99.90;;;;;;5106458;28;20556;-70
2022/01/21 11:00:17;;;;;;;20.67;2.38;;;9.00;99.90;;;;;;5108394;28;20547;-69
2022/01/21 11:02:54;;;;;;;12.82;1.83;;;9.10;99.90;;;;;;5029049;28;20183;-69
2022/01/21 11:05:37;;;;;;;15.95;2.25;;;9.20;99.90;;;;;;5099137;27;20715;-70
2022/01/21 11:08:07;;;;;;;27.40;2.75;;;9.10;99.90;;;;;;5107545;28;20204;-70
2022/01/21 11:10:36;;;;;;;20.05;2.65;;;9.10;99.90;;;;;;5106630;27;20185;-70
2022/01/21 11:13:15;;;;;;;15.20;2.47;;;9.00;99.90;;;;;;5110392;27;20264;-69
2022/01/21 11:15:49;;;;;;;22.95;2.63;;;9.00;99.90;;;;;;5140480;27;20204;-70
2022/01/21 11:18:18;;;;;;;16.30;2.25;;;9.00;99.90;;;;;;5107575;28;20196;-70
2022/01/21 11:20:48;;;;;;;15.18;2.42;;;8.90;99.90;;;;;;5106299;28;20192;-68
2022/01/21 11:23:14;;;;;;;20.15;2.60;;;8.80;99.90;;;;;;5110313;28;20181;-70
2022/01/21 11:25:54;;;;;;;22.42;2.88;;;8.80;99.90;;;;;;5108551;28;20200;-70
2022/01/21 11:28:23;;;;;;;13.95;2.65;;;8.70;99.90;;;;;;5105991;28;20561;-69
2022/01/21 11:30:51;;;;;;;26.95;2.17;;;8.60;99.90;;;;;;5105459;28;20195;-68
2022/01/21 11:33:17;;;;;;;16.73;2.33;;;8.60;99.90;;;;;;5107898;28;20689;-68
2022/01/21 11:35:43;;;;;;;26.33;2.65;;;8.50;99.90;;;;;;5107643;28;20236;-68
2022/01/21 11:38:10;;;;;;;23.98;3.65;;;8.50;99.90;;;;;;5115295;28;20443;-68
2022/01/21 11:40:38;;;;;;;24.77;2.72;;;8.90;99.90;;;;;;5105137;28;20416;-70
2022/01/21 11:43:05;;;;;;;20.60;2.67;;;9.30;99.90;;;;;;5119453;28;20476;-69
2022/01/21 11:45:44;;;;;;;20.85;3.08;;;9.50;99.90;;;;;;5106077;28;21362;-69
2022/01/21 11:50:51;;;;;;;19.00;2.67;;;9.90;99.90;;;;;;5114539;28;20441;-69
2022/01/21 11:53:45;;;;;;;18.10;2.70;;;9.90;99.90;;;;;;5106544;28;20400;-69
2022/01/21 11:56:35;;;;;;;16.73;2.65;;;10.00;99.90;;;;;;5104342;28;20411;-72
2022/01/21 11:59:16;;;;;;;18.50;2.90;;;10.10;99.90;;;;;;5108660;28;20420;-70
2022/01/21 12:01:50;;;;;;;16.77;2.30;;;10.20;99.90;;;;;;5107457;28;20775;-70
2022/01/21 12:04:40;;;;;;;16.20;2.40;;;10.30;99.90;;;;;;5103630;28;20407;-70
2022/01/21 12:07:35;;;;;;;19.35;3.85;;;10.30;99.90;;;;;;5101372;28;20430;-70
2022/01/21 12:10:05;;;;;;;18.15;2.90;;;10.40;99.90;;;;;;5107003;28;20915;-69
2022/01/21 12:12:47;;;;;;;20.40;2.78;;;10.50;99.70;;;;;;5107765;28;20396;-70
2022/01/21 12:15:42;;;;;;;20.27;3.10;;;10.50;99.70;;;;;;5109621;28;20415;-70
2022/01/21 12:18:55;;;;;;;16.37;2.60;;;10.50;99.60;;;;;;5111281;27;20420;-68
2022/01/21 12:21:29;;;;;;;15.40;2.45;;;10.50;99.70;;;;;;5105813;27;20408;-68
2022/01/21 12:23:55;;;;;;;18.17;2.95;;;10.40;99.90;;;;;;5110973;27;20451;-67
2022/01/21 12:26:26;;;;;;;21.40;3.08;;;10.40;99.90;;;;;;5109994;27;21104;-70
2022/01/21 12:28:57;;;;;;;17.73;2.75;;;10.40;99.80;;;;;;5109781;27;20420;-69
2022/01/21 12:31:52;;;;;;;17.38;2.67;;;10.30;99.70;;;;;;5111478;27;20881;-71
2022/01/21 12:34:21;;;;;;;16.77;2.65;;;10.30;99.80;;;;;;5111958;27;20435;-70
2022/01/21 12:36:49;;;;;;;16.20;2.50;;;10.20;99.90;;;;;;5107736;27;20400;-70
2022/01/21 12:39:41;;;;;;;20.73;2.70;;;10.20;99.80;;;;;;5111884;27;20432;-68
2022/01/21 12:42:25;;;;;;;20.23;2.80;;;10.30;99.80;;;;;;5110120;28;20842;-70
2022/01/21 12:45:06;;;;;;;22.23;2.88;;;10.30;99.90;;;;;;5110493;28;20418;-69
2022/01/21 12:47:40;;;;;;;21.52;3.17;;;10.40;99.50;;;;;;5114688;27;20436;-69
2022/01/21 12:53:18;;;;;;;20.40;2.78;;;10.40;99.30;;;;;;5109311;27;20443;-67
2022/01/21 12:55:55;;;;;;;24.45;3.17;;;10.40;99.10;;;;;;5107534;28;20502;-68
2022/01/21 12:58:40;;;;;;;23.08;3.58;;;10.40;99.40;;;;;;5111399;27;20407;-70
2022/01/21 13:01:11;;;;;;;20.23;3.17;;;10.30;99.20;;;;;;5108070;27;20408;-68
2022/01/21 13:04:01;;;;;;;20.13;2.78;;;10.30;99.70;;;;;;5109509;28;20881;-71
2022/01/21 13:06:36;;;;;;;17.70;2.47;;;10.10;99.90;;;;;;5107470;28;20404;-70
2022/01/21 13:09:09;;;;;;;18.52;2.63;;;10.10;99.90;;;;;;5110717;28;20404;-69
2022/01/21 13:11:40;;;;;;;21.48;2.80;;;10.00;99.90;;;;;;5107200;27;20408;-72
2022/01/21 13:17:25;;;;;;;20.90;3.00;;;9.60;99.90;;;;;;5089582;27;20258;-71
2022/01/21 13:19:53;;;;;;;22.67;3.08;;;9.10;99.90;;;;;;5107953;27;20193;-71
2022/01/21 13:22:23;;;;;;;19.38;2.35;;;8.90;99.90;;;;;;5110280;28;20189;-71
2022/01/21 13:25:01;;;;;;;21.02;3.33;;;8.60;99.90;;;;;;5110989;28;20598;-70
2022/01/21 13:27:28;;;;;;;31.23;2.85;;;8.50;99.90;;;;;;5109299;28;20184;-70
2022/01/21 13:30:05;;;;;;;25.02;2.65;;;8.30;99.90;;;;;;5110695;27;20272;-70
2022/01/21 13:32:31;;;;;;;19.58;2.97;;;8.20;99.90;;;;;;5103069;27;20276;-70
2022/01/21 13:35:10;;;;;;;23.17;2.80;;;8.20;99.90;;;;;;5110246;27;20347;-71
2022/01/21 13:37:40;;;;;;;22.50;2.22;;;8.10;99.90;;;;;;5109241;28;20189;-71
2022/01/21 13:40:09;;;;;;;19.42;2.55;;;8.00;99.90;;;;;;5110166;28;20189;-71
2022/01/21 13:42:35;;;;;;;27.35;3.22;;;8.00;99.90;;;;;;5110989;27;20204;-70
2022/01/21 13:45:05;;;;;;;21.77;2.35;;;8.00;99.90;;;;;;5111850;27;20212;-70
2022/01/21 13:47:41;;;;;;;25.77;3.22;;;7.90;99.90;;;;;;5108094;27;20190;-69
2022/01/21 13:50:20;;;;;;;15.60;2.85;;;8.00;99.90;;;;;;5115158;27;20196;-70
2022/01/21 13:53:07;;;;;;;25.60;2.80;;;7.90;99.90;;;;;;5109101;27;20915;-70
2022/01/21 13:55:40;;;;;;;26.00;2.65;;;7.90;99.90;;;;;;5108259;27;20201;-70
2022/01/21 13:58:15;;;;;;;26.98;2.58;;;8.00;99.90;;;;;;5109351;27;20264;-69